createdAt,value
2018-12-31T00:00:54.465Z,6.60
2018-12-31T00:03:23.737Z,6.60
2018-12-31T00:05:53.429Z,6.70
2018-12-31T00:08:22.753Z,6.60
2018-12-31T00:10:52.080Z,6.60
2018-12-31T00:13:21.413Z,6.60
2018-12-31T00:15:50.625Z,6.50
2018-12-31T00:18:19.926Z,6.60
2018-12-31T00:20:49.727Z,6.60
2018-12-31T00:23:19.433Z,6.60
2018-12-31T00:25:50.205Z,6.50
2018-12-31T00:28:19.559Z,6.50
2018-12-31T00:30:49.010Z,6.50
2018-12-31T00:33:18.248Z,6.50
2018-12-31T00:35:47.607Z,6.60
2018-12-31T00:38:17.025Z,6.70
2018-12-31T00:40:46.269Z,6.80
2018-12-31T00:43:15.493Z,6.60
2018-12-31T00:45:44.950Z,6.60
2018-12-31T00:48:14.248Z,6.70
2018-12-31T00:50:43.826Z,6.70
2018-12-31T00:53:13.397Z,6.70
2018-12-31T00:55:42.949Z,6.70
2018-12-31T00:58:12.506Z,6.70
2018-12-31T01:00:41.805Z,6.70
2018-12-31T01:03:11.104Z,6.70
2018-12-31T01:05:40.492Z,6.70
2018-12-31T01:08:10.112Z,6.60
2018-12-31T01:10:40.100Z,6.60
2018-12-31T01:13:09.518Z,6.60
2018-12-31T01:15:38.937Z,6.60
2018-12-31T01:18:08.134Z,6.60
2018-12-31T01:20:37.441Z,6.50
2018-12-31T01:23:06.973Z,6.40
2018-12-31T01:25:36.262Z,6.40
2018-12-31T01:28:05.540Z,6.50
2018-12-31T01:30:34.831Z,6.40
2018-12-31T01:33:04.444Z,6.50
2018-12-31T01:35:34.545Z,6.60
2018-12-31T01:38:04.300Z,6.50
2018-12-31T01:40:33.781Z,6.50
2018-12-31T01:43:03.153Z,6.50
2018-12-31T01:45:33.682Z,6.60
2018-12-31T01:48:03.109Z,6.60
2018-12-31T01:50:32.669Z,6.60
2018-12-31T01:53:01.979Z,6.60
2018-12-31T01:55:31.437Z,6.50
2018-12-31T01:58:01.048Z,6.60
2018-12-31T02:00:31.681Z,6.50
2018-12-31T02:03:01.415Z,6.50
2018-12-31T02:05:30.805Z,6.50
2018-12-31T02:08:00.258Z,6.60
2018-12-31T02:10:29.815Z,6.60
2018-12-31T02:12:59.062Z,6.60
2018-12-31T02:15:28.341Z,6.60
2018-12-31T02:17:57.777Z,6.70
2018-12-31T02:20:27.048Z,6.70
2018-12-31T02:22:56.536Z,6.70
2018-12-31T02:25:25.781Z,6.60
2018-12-31T02:27:54.905Z,6.60
2018-12-31T02:30:24.511Z,6.60
2018-12-31T02:32:53.865Z,6.60
2018-12-31T02:35:23.169Z,6.60
2018-12-31T02:37:52.532Z,6.60
2018-12-31T02:40:21.833Z,6.60
2018-12-31T02:42:51.411Z,6.60
2018-12-31T02:45:21.145Z,6.70
2018-12-31T02:47:50.649Z,6.70
2018-12-31T02:50:19.938Z,6.70
2018-12-31T02:52:49.354Z,6.70
2018-12-31T02:55:18.745Z,6.70
2018-12-31T02:57:48.192Z,6.70
2018-12-31T03:00:17.565Z,6.70
2018-12-31T03:02:46.976Z,6.60
2018-12-31T03:05:16.663Z,6.60
2018-12-31T03:07:46.053Z,6.60
2018-12-31T03:10:15.324Z,6.60
2018-12-31T03:12:44.729Z,6.60
2018-12-31T03:15:14.058Z,6.60
2018-12-31T03:17:43.379Z,6.60
2018-12-31T03:20:12.766Z,6.60
2018-12-31T03:22:42.573Z,6.60
2018-12-31T03:25:11.908Z,6.60
2018-12-31T03:27:41.226Z,6.60
2018-12-31T03:30:10.714Z,6.60
2018-12-31T03:32:39.925Z,6.70
2018-12-31T03:35:09.253Z,6.70
2018-12-31T03:37:38.714Z,6.70
2018-12-31T03:40:08.337Z,6.70
2018-12-31T03:42:37.577Z,6.70
2018-12-31T03:45:07.364Z,6.80
2018-12-31T03:47:36.546Z,6.80
2018-12-31T03:50:06.690Z,6.80
2018-12-31T03:52:36.099Z,6.80
2018-12-31T03:55:05.649Z,6.80
2018-12-31T03:57:34.801Z,6.80
2018-12-31T04:00:04.031Z,6.70
2018-12-31T04:02:33.663Z,6.80
2018-12-31T04:05:02.869Z,6.80
2018-12-31T04:07:32.745Z,6.80
2018-12-31T04:10:02.270Z,6.80
2018-12-31T04:12:31.789Z,6.80
2018-12-31T04:15:01.217Z,6.90
2018-12-31T04:17:30.500Z,6.80
2018-12-31T04:19:59.645Z,6.80
2018-12-31T04:22:28.818Z,6.80
2018-12-31T04:24:58.191Z,6.80
2018-12-31T04:27:27.346Z,6.80
2018-12-31T04:29:56.745Z,6.80
2018-12-31T04:32:25.893Z,6.80
2018-12-31T04:34:55.037Z,6.80
2018-12-31T04:37:24.186Z,6.80
2018-12-31T04:39:53.309Z,6.80
2018-12-31T04:42:22.901Z,6.90
2018-12-31T04:44:52.037Z,6.90
2018-12-31T04:47:21.267Z,6.90
2018-12-31T04:49:50.652Z,6.80
2018-12-31T04:52:19.973Z,6.80
2018-12-31T04:54:49.209Z,6.80
2018-12-31T04:57:18.436Z,6.80
2018-12-31T04:59:47.750Z,6.80
2018-12-31T05:02:16.974Z,6.80
2018-12-31T05:04:46.150Z,6.90
2018-12-31T05:07:15.342Z,6.90
2018-12-31T05:09:44.478Z,6.90
2018-12-31T05:12:14.016Z,6.80
2018-12-31T05:14:43.237Z,6.80
2018-12-31T05:17:12.630Z,6.80
2018-12-31T05:19:41.825Z,6.80
2018-12-31T05:22:11.020Z,6.90
2018-12-31T05:24:40.481Z,7.00
2018-12-31T05:27:09.609Z,7.00
2018-12-31T05:29:39.037Z,6.90
2018-12-31T05:32:08.167Z,7.00
2018-12-31T05:34:37.326Z,7.00
2018-12-31T05:37:06.449Z,7.10
2018-12-31T05:39:35.856Z,7.10
2018-12-31T05:42:05.043Z,7.10
2018-12-31T05:44:34.277Z,7.10
2018-12-31T05:47:03.393Z,7.10
2018-12-31T05:49:32.637Z,7.00
2018-12-31T05:52:01.834Z,7.10
2018-12-31T05:54:31.566Z,7.10
2018-12-31T05:57:00.745Z,7.10
2018-12-31T05:59:30.230Z,7.20
2018-12-31T06:01:59.356Z,7.20
2018-12-31T06:04:28.592Z,7.20
2018-12-31T06:06:57.730Z,7.20
2018-12-31T06:09:27.201Z,7.20
2018-12-31T06:11:56.360Z,7.20
2018-12-31T06:14:25.598Z,7.20
2018-12-31T06:16:54.784Z,7.20
2018-12-31T06:19:23.973Z,7.20
2018-12-31T06:21:53.125Z,7.20
2018-12-31T06:24:22.547Z,7.20
2018-12-31T06:26:51.692Z,7.20
2018-12-31T06:29:20.845Z,7.20
2018-12-31T06:31:50.868Z,7.30
2018-12-31T06:34:20.433Z,7.20
2018-12-31T06:36:49.819Z,7.20
2018-12-31T06:39:19.049Z,7.30
2018-12-31T06:41:48.425Z,7.30
2018-12-31T06:44:17.564Z,7.30
2018-12-31T06:46:47.042Z,7.20
2018-12-31T06:49:16.493Z,7.20
2018-12-31T06:51:45.945Z,7.20
2018-12-31T06:54:15.085Z,7.20
2018-12-31T06:56:44.466Z,7.30
2018-12-31T06:59:13.795Z,7.30
2018-12-31T07:01:43.174Z,7.30
2018-12-31T07:04:12.574Z,7.30
2018-12-31T07:06:42.260Z,7.30
2018-12-31T07:09:11.657Z,7.30
2018-12-31T07:11:40.778Z,7.30
2018-12-31T07:14:10.000Z,7.30
2018-12-31T07:16:39.134Z,7.30
2018-12-31T07:19:08.366Z,7.30
2018-12-31T07:21:37.752Z,7.30
2018-12-31T07:24:06.906Z,7.30
2018-12-31T07:26:36.355Z,7.30
2018-12-31T07:29:05.495Z,7.30
2018-12-31T07:31:34.889Z,7.30
2018-12-31T07:34:04.033Z,7.30
2018-12-31T07:36:33.202Z,7.40
2018-12-31T07:39:02.424Z,7.30
2018-12-31T07:41:31.583Z,7.30
2018-12-31T07:44:01.192Z,7.40
2018-12-31T07:46:30.521Z,7.40
2018-12-31T07:48:59.875Z,7.40
2018-12-31T07:51:29.176Z,7.40
2018-12-31T07:53:58.379Z,7.40
2018-12-31T07:56:27.536Z,7.40
2018-12-31T07:58:56.789Z,7.40
2018-12-31T08:01:26.033Z,7.40
2018-12-31T08:03:55.233Z,7.30
2018-12-31T08:06:24.461Z,7.40
2018-12-31T08:08:53.657Z,7.40
2018-12-31T08:11:22.817Z,7.30
2018-12-31T08:13:51.953Z,7.40
2018-12-31T08:16:21.092Z,7.40
2018-12-31T08:18:50.487Z,7.40
2018-12-31T08:21:19.657Z,7.40
2018-12-31T08:23:48.793Z,7.40
2018-12-31T08:26:18.306Z,7.50
2018-12-31T08:28:48.081Z,7.40
2018-12-31T08:31:17.331Z,7.40
2018-12-31T08:33:46.513Z,7.40
2018-12-31T08:36:15.719Z,7.40
2018-12-31T08:38:44.859Z,7.50
2018-12-31T08:41:14.110Z,7.50
2018-12-31T08:43:43.363Z,7.50
2018-12-31T08:46:12.613Z,7.60
2018-12-31T08:48:42.018Z,7.60
2018-12-31T08:51:11.461Z,7.60
2018-12-31T08:53:40.673Z,7.60
2018-12-31T08:56:10.086Z,7.50
2018-12-31T08:58:39.329Z,7.50
2018-12-31T09:01:08.489Z,7.60
2018-12-31T09:03:37.618Z,7.60
2018-12-31T09:06:07.137Z,7.70
2018-12-31T09:08:36.533Z,7.70
2018-12-31T09:11:05.985Z,7.70
2018-12-31T09:13:35.141Z,7.80
2018-12-31T09:16:04.348Z,7.80
2018-12-31T09:18:33.564Z,7.90
2018-12-31T09:21:02.797Z,7.90
2018-12-31T09:23:31.916Z,7.90
2018-12-31T09:26:01.382Z,8.00
2018-12-31T09:28:32.005Z,7.70
2018-12-31T09:31:01.481Z,7.70
2018-12-31T09:33:30.978Z,7.90
2018-12-31T09:36:00.460Z,7.90
2018-12-31T09:38:29.600Z,7.90
2018-12-31T09:40:58.765Z,8.00
2018-12-31T09:43:27.975Z,8.00
2018-12-31T09:45:57.185Z,8.00
2018-12-31T09:48:26.862Z,7.40
2018-12-31T09:50:56.008Z,8.10
2018-12-31T09:53:25.229Z,8.10
2018-12-31T09:55:54.801Z,8.10
2018-12-31T09:58:23.970Z,8.10
2018-12-31T10:00:53.561Z,8.00
2018-12-31T10:03:23.253Z,8.00
2018-12-31T10:05:52.711Z,8.00
2018-12-31T10:08:21.860Z,8.00
2018-12-31T10:10:51.301Z,8.10
2018-12-31T10:13:20.902Z,8.90
2018-12-31T10:15:50.073Z,8.10
2018-12-31T10:18:19.253Z,8.00
2018-12-31T10:20:48.372Z,8.20
2018-12-31T10:23:17.916Z,8.20
2018-12-31T10:25:47.389Z,8.30
2018-12-31T10:28:16.893Z,8.40
2018-12-31T10:30:46.614Z,8.30
2018-12-31T10:33:15.754Z,8.40
2018-12-31T10:35:45.164Z,8.50
2018-12-31T10:38:14.401Z,8.60
2018-12-31T10:40:43.621Z,8.40
2018-12-31T10:43:12.933Z,8.50
2018-12-31T10:45:42.091Z,8.60
2018-12-31T10:48:11.613Z,8.60
2018-12-31T10:50:40.770Z,8.40
2018-12-31T10:53:09.978Z,8.40
2018-12-31T10:55:39.425Z,8.40
2018-12-31T10:58:08.586Z,8.50
2018-12-31T11:00:37.786Z,8.50
2018-12-31T11:03:07.179Z,8.50
2018-12-31T11:05:36.413Z,8.60
2018-12-31T11:08:05.857Z,8.60
2018-12-31T11:10:35.099Z,8.60
2018-12-31T11:13:04.313Z,8.70
2018-12-31T11:15:33.462Z,8.90
2018-12-31T11:18:02.889Z,8.90
2018-12-31T11:20:32.050Z,8.90
2018-12-31T11:23:01.451Z,8.60
2018-12-31T11:25:30.653Z,8.80
2018-12-31T11:28:00.095Z,8.90
2018-12-31T11:30:31.152Z,9.00
2018-12-31T11:33:00.500Z,9.10
2018-12-31T11:35:29.977Z,9.10
2018-12-31T11:37:59.461Z,9.10
2018-12-31T11:40:28.952Z,9.10
2018-12-31T11:42:58.106Z,9.20
2018-12-31T11:45:27.284Z,9.40
2018-12-31T11:47:56.429Z,9.40
2018-12-31T11:50:25.673Z,9.10
2018-12-31T11:52:54.793Z,9.00
2018-12-31T11:55:23.994Z,9.10
2018-12-31T11:57:53.406Z,9.20
2018-12-31T12:00:22.801Z,9.50
2018-12-31T12:02:51.962Z,10.10
2018-12-31T12:05:21.553Z,10.30
2018-12-31T12:07:50.876Z,10.40
2018-12-31T12:10:20.085Z,10.50
2018-12-31T12:12:49.384Z,10.50
2018-12-31T12:15:18.951Z,10.40
2018-12-31T12:17:48.273Z,10.20
2018-12-31T12:20:17.812Z,10.20
2018-12-31T12:22:47.145Z,10.10
2018-12-31T12:25:16.402Z,10.20
2018-12-31T12:27:45.713Z,10.40
2018-12-31T12:30:15.025Z,10.60
2018-12-31T12:32:44.242Z,10.60
2018-12-31T12:35:13.495Z,10.90
2018-12-31T12:37:48.467Z,10.80
2018-12-31T12:40:13.641Z,10.90
2018-12-31T12:42:42.845Z,10.90
2018-12-31T12:45:12.081Z,10.80
2018-12-31T12:47:41.472Z,11.00
2018-12-31T12:50:11.305Z,11.40
2018-12-31T12:52:41.186Z,11.50
2018-12-31T12:55:10.674Z,11.60
2018-12-31T12:57:40.147Z,11.30
2018-12-31T13:00:09.397Z,11.00
2018-12-31T13:02:38.868Z,10.70
2018-12-31T13:05:08.067Z,10.80
2018-12-31T13:07:37.453Z,10.80
2018-12-31T13:10:06.687Z,10.70
2018-12-31T13:12:35.902Z,10.80
2018-12-31T13:15:05.611Z,11.10
2018-12-31T13:17:34.814Z,11.40
2018-12-31T13:20:04.813Z,11.40
2018-12-31T13:22:34.624Z,11.20
2018-12-31T13:25:03.853Z,10.60
2018-12-31T13:27:33.218Z,10.80
2018-12-31T13:30:02.438Z,10.60
2018-12-31T13:32:31.792Z,10.50
2018-12-31T13:35:01.017Z,11.00
2018-12-31T13:37:30.216Z,11.00
2018-12-31T13:39:59.470Z,11.40
2018-12-31T13:42:28.782Z,11.40
2018-12-31T13:44:58.262Z,11.40
2018-12-31T13:47:27.481Z,10.90
2018-12-31T13:49:56.830Z,10.70
2018-12-31T13:52:25.981Z,10.50
2018-12-31T13:54:55.101Z,10.30
2018-12-31T13:57:24.257Z,10.30
2018-12-31T13:59:53.455Z,10.20
2018-12-31T14:02:22.706Z,10.10
2018-12-31T14:04:51.891Z,10.20
2018-12-31T14:07:21.062Z,10.20
2018-12-31T14:09:50.256Z,10.00
2018-12-31T14:12:19.833Z,10.00
2018-12-31T14:14:48.956Z,10.00
2018-12-31T14:17:18.109Z,9.90
2018-12-31T14:19:47.874Z,9.70
2018-12-31T14:22:17.029Z,9.70
2018-12-31T14:24:46.269Z,9.60
2018-12-31T14:27:15.617Z,9.60
2018-12-31T14:29:44.903Z,9.60
2018-12-31T14:32:14.674Z,9.60
2018-12-31T14:34:43.930Z,9.50
2018-12-31T14:37:13.410Z,9.50
2018-12-31T14:39:43.063Z,9.50
2018-12-31T14:42:12.290Z,9.40
2018-12-31T14:44:41.498Z,9.50
2018-12-31T14:47:18.113Z,9.50
2018-12-31T14:49:41.749Z,9.50
2018-12-31T14:52:11.162Z,9.50
2018-12-31T14:54:40.349Z,9.40
2018-12-31T14:57:09.505Z,9.30
2018-12-31T14:59:38.933Z,9.20
2018-12-31T15:02:08.153Z,9.20
2018-12-31T15:04:37.799Z,9.20
2018-12-31T15:07:07.108Z,9.30
2018-12-31T15:09:36.604Z,9.30
2018-12-31T15:12:06.064Z,9.30
2018-12-31T15:14:35.925Z,9.10
2018-12-31T15:17:05.169Z,9.00
2018-12-31T15:19:34.578Z,9.00
2018-12-31T15:22:04.115Z,9.00
2018-12-31T15:24:33.706Z,9.00
2018-12-31T15:27:03.314Z,9.00
2018-12-31T15:29:32.691Z,8.90
2018-12-31T15:32:02.623Z,8.90
2018-12-31T15:34:32.281Z,8.90
2018-12-31T15:37:01.672Z,8.90
2018-12-31T15:39:30.987Z,8.80
2018-12-31T15:42:00.304Z,8.80
2018-12-31T15:44:29.938Z,8.90
2018-12-31T15:46:59.208Z,8.80
2018-12-31T15:49:29.426Z,8.80
2018-12-31T15:51:58.709Z,8.80
2018-12-31T15:54:27.905Z,8.70
2018-12-31T15:56:57.917Z,8.60
2018-12-31T15:59:27.271Z,8.50
2018-12-31T16:01:56.718Z,8.60
2018-12-31T16:04:26.034Z,8.70
2018-12-31T16:06:55.675Z,8.70
2018-12-31T16:09:24.976Z,8.70
2018-12-31T16:11:54.790Z,8.60
2018-12-31T16:14:24.104Z,8.60
2018-12-31T16:16:53.331Z,8.70
2018-12-31T16:19:22.719Z,8.70
2018-12-31T16:21:51.964Z,8.70
2018-12-31T16:24:21.429Z,8.70
2018-12-31T16:26:50.792Z,8.70
2018-12-31T16:29:20.093Z,8.70
2018-12-31T16:31:49.397Z,8.60
2018-12-31T16:34:18.595Z,8.70
2018-12-31T16:36:48.389Z,8.60
2018-12-31T16:39:17.698Z,8.60
2018-12-31T16:41:46.915Z,8.70
2018-12-31T16:44:16.195Z,8.60
2018-12-31T16:46:45.387Z,8.60
2018-12-31T16:49:14.606Z,8.60
2018-12-31T16:51:44.349Z,8.60
2018-12-31T16:54:13.787Z,8.50
2018-12-31T16:56:43.241Z,8.60
2018-12-31T16:59:12.742Z,8.60
2018-12-31T17:01:41.968Z,8.50
2018-12-31T17:04:11.226Z,8.50
2018-12-31T17:06:40.431Z,8.50
2018-12-31T17:09:09.993Z,8.40
2018-12-31T17:11:39.241Z,8.40
2018-12-31T17:14:08.989Z,8.50
2018-12-31T17:16:38.449Z,8.40
2018-12-31T17:19:07.701Z,8.40
2018-12-31T17:21:37.120Z,8.40
2018-12-31T17:24:06.365Z,8.40
2018-12-31T17:26:35.800Z,8.40
2018-12-31T17:29:05.386Z,8.30
2018-12-31T17:31:34.585Z,8.30
2018-12-31T17:34:03.832Z,8.30
2018-12-31T17:36:33.445Z,8.30
2018-12-31T17:39:03.790Z,8.30
2018-12-31T17:41:32.942Z,8.30
2018-12-31T17:44:02.170Z,8.40
2018-12-31T17:46:31.821Z,8.40
2018-12-31T17:49:01.729Z,8.40
2018-12-31T17:51:31.181Z,8.30
2018-12-31T17:54:00.597Z,8.30
2018-12-31T17:56:29.809Z,8.30
2018-12-31T17:58:59.105Z,8.30
2018-12-31T18:01:28.581Z,8.20
2018-12-31T18:03:57.792Z,8.20
2018-12-31T18:06:26.943Z,8.20
2018-12-31T18:08:56.300Z,8.20
2018-12-31T18:11:25.585Z,8.30
2018-12-31T18:13:54.790Z,8.30
2018-12-31T18:16:23.946Z,8.30
2018-12-31T18:18:53.180Z,8.20
2018-12-31T18:21:22.492Z,8.10
2018-12-31T18:23:51.901Z,8.10
2018-12-31T18:26:21.055Z,8.10
2018-12-31T18:28:50.272Z,8.20
2018-12-31T18:31:19.754Z,8.20
2018-12-31T18:33:48.971Z,8.10
2018-12-31T18:36:18.833Z,8.20
2018-12-31T18:38:48.430Z,8.20
2018-12-31T18:41:17.637Z,8.10
2018-12-31T18:43:46.942Z,8.10
2018-12-31T18:46:16.298Z,8.10
2018-12-31T18:48:46.294Z,8.10
2018-12-31T18:51:15.755Z,8.10
2018-12-31T18:53:45.556Z,8.00
2018-12-31T18:56:14.844Z,8.00
2018-12-31T18:58:44.206Z,8.00
2018-12-31T19:01:14.977Z,8.00
2018-12-31T19:03:44.277Z,8.00
2018-12-31T19:06:13.699Z,8.00
2018-12-31T19:08:42.909Z,8.10
2018-12-31T19:11:12.426Z,8.10
2018-12-31T19:13:42.022Z,8.00
2018-12-31T19:16:12.254Z,8.00
2018-12-31T19:18:41.551Z,8.00
2018-12-31T19:21:10.889Z,8.10
2018-12-31T19:23:40.312Z,8.10
2018-12-31T19:26:10.105Z,8.10
2018-12-31T19:28:39.790Z,8.00
2018-12-31T19:31:09.132Z,8.00
2018-12-31T19:33:38.449Z,8.10
2018-12-31T19:36:07.731Z,8.10
2018-12-31T19:38:37.184Z,8.10
2018-12-31T19:41:06.406Z,8.10
2018-12-31T19:43:36.036Z,8.10
2018-12-31T19:46:05.533Z,8.10
2018-12-31T19:48:34.819Z,8.10
2018-12-31T19:51:04.438Z,8.10
2018-12-31T19:53:33.731Z,8.00
2018-12-31T19:56:03.434Z,8.00
2018-12-31T19:58:32.709Z,7.90
2018-12-31T20:01:02.266Z,7.90
2018-12-31T20:03:31.777Z,7.90
2018-12-31T20:06:01.093Z,7.90
2018-12-31T20:08:30.686Z,8.00
2018-12-31T20:11:00.093Z,7.90
2018-12-31T20:13:30.982Z,7.90
2018-12-31T20:16:02.227Z,8.00
2018-12-31T20:18:32.220Z,7.90
2018-12-31T20:21:03.975Z,7.90
2018-12-31T20:23:33.300Z,7.90
2018-12-31T20:26:02.643Z,7.90
2018-12-31T20:28:32.561Z,7.90
2018-12-31T20:31:02.132Z,7.90
2018-12-31T20:33:31.420Z,7.80
2018-12-31T20:36:00.802Z,7.80
2018-12-31T20:38:30.177Z,7.90
2018-12-31T20:40:59.876Z,7.90
2018-12-31T20:43:29.558Z,7.90
2018-12-31T20:45:58.928Z,7.90
2018-12-31T20:48:28.337Z,8.00
2018-12-31T20:50:58.081Z,7.90
2018-12-31T20:53:29.450Z,7.90
2018-12-31T20:55:59.077Z,7.90
2018-12-31T20:58:29.368Z,7.90
2018-12-31T21:00:58.937Z,7.90
2018-12-31T21:03:28.673Z,7.90
2018-12-31T21:05:58.636Z,7.80
2018-12-31T21:08:28.500Z,7.90
2018-12-31T21:10:58.028Z,7.90
2018-12-31T21:13:27.453Z,7.80
2018-12-31T21:15:57.517Z,7.90
2018-12-31T21:18:27.236Z,7.90
2018-12-31T21:20:56.760Z,7.90
2018-12-31T21:23:26.579Z,7.90
2018-12-31T21:25:58.782Z,7.90
2018-12-31T21:28:28.854Z,7.90
2018-12-31T21:30:58.833Z,7.80
2018-12-31T21:33:28.300Z,7.80
2018-12-31T21:35:58.223Z,7.90
2018-12-31T21:38:27.865Z,7.80
2018-12-31T21:40:57.293Z,7.90
2018-12-31T21:43:43.000Z,7.90
2018-12-31T21:46:28.477Z,7.90
2018-12-31T21:49:06.475Z,7.90
2018-12-31T21:51:45.828Z,7.90
2018-12-31T21:54:26.713Z,7.80
2018-12-31T21:57:06.511Z,7.90
2018-12-31T21:59:49.135Z,7.90
2018-12-31T22:02:18.863Z,7.80
2018-12-31T22:04:48.327Z,7.90
2018-12-31T22:07:18.148Z,7.90
2018-12-31T22:09:47.530Z,7.90
2018-12-31T22:12:17.804Z,7.80
2018-12-31T22:14:47.481Z,7.80
2018-12-31T22:17:18.424Z,7.90
2018-12-31T22:19:47.835Z,7.90
2018-12-31T22:22:17.413Z,7.90
2018-12-31T22:24:47.061Z,7.90
2018-12-31T22:27:16.489Z,7.90
2018-12-31T22:29:45.905Z,7.90
2018-12-31T22:32:15.339Z,8.00
2018-12-31T22:34:45.062Z,8.00
2018-12-31T22:37:14.456Z,7.90
2018-12-31T22:39:43.726Z,7.90
2018-12-31T22:42:13.397Z,7.90
2018-12-31T22:44:43.050Z,7.90
2018-12-31T22:47:12.673Z,7.90
2018-12-31T22:49:42.039Z,7.80
2018-12-31T22:52:11.577Z,7.80
2018-12-31T22:54:41.336Z,7.80
2018-12-31T22:57:10.615Z,7.80
2018-12-31T22:59:39.869Z,7.90
2018-12-31T23:02:09.465Z,7.80
2018-12-31T23:04:39.116Z,7.90
2018-12-31T23:07:09.960Z,7.90
2018-12-31T23:09:41.405Z,7.90
2018-12-31T23:12:10.722Z,7.90
2018-12-31T23:14:40.117Z,7.90
2018-12-31T23:17:11.934Z,7.90
2018-12-31T23:19:42.137Z,7.80
2018-12-31T23:22:11.877Z,7.90
2018-12-31T23:24:41.565Z,7.80
2018-12-31T23:27:12.056Z,7.90
2018-12-31T23:29:41.655Z,7.90
2018-12-31T23:32:11.229Z,7.90
2018-12-31T23:34:40.733Z,7.90
2018-12-31T23:37:10.209Z,7.90
2018-12-31T23:39:40.046Z,7.80
2018-12-31T23:42:09.403Z,7.80
2018-12-31T23:44:38.581Z,7.80
2018-12-31T23:47:08.530Z,7.90
2018-12-31T23:49:38.982Z,7.90
2018-12-31T23:52:08.997Z,8.00
2018-12-31T23:54:38.866Z,7.90
2018-12-31T23:57:08.408Z,7.90
2018-12-31T23:59:37.706Z,7.90
